sensor_id;sensor_type;location;lat;lon;timestamp;pressure;altitude;pressure_sealevel;temperature
69545;BMP180;56766;52.260;20.746;2023-11-19T00:00:08;101036.20;;;-0.10
69545;BMP180;56766;52.260;20.746;2023-11-19T00:02:58;101040.00;;;-0.10
69545;BMP180;56766;52.260;20.746;2023-11-19T00:05:25;101034.20;;;0.00
69545;BMP180;56766;52.260;20.746;2023-11-19T00:07:54;101034.80;;;0.00
69545;BMP180;56766;52.260;20.746;2023-11-19T00:10:21;101032.80;;;0.00
69545;BMP180;56766;52.260;20.746;2023-11-19T00:12:49;101031.00;;;0.00
69545;BMP180;56766;52.260;20.746;2023-11-19T00:15:17;101033.20;;;0.00
69545;BMP180;56766;52.260;20.746;2023-11-19T00:17:47;101032.00;;;0.00
69545;BMP180;56766;52.260;20.746;2023-11-19T00:20:17;101021.60;;;0.04
69545;BMP180;56766;52.260;20.746;2023-11-19T00:22:45;101016.00;;;0.00
69545;BMP180;56766;52.260;20.746;2023-11-19T00:25:19;101007.20;;;0.00
69545;BMP180;56766;52.260;20.746;2023-11-19T00:27:46;101006.00;;;0.00
69545;BMP180;56766;52.260;20.746;2023-11-19T00:30:14;101001.80;;;0.00
69545;BMP180;56766;52.260;20.746;2023-11-19T00:32:41;101010.40;;;0.00
69545;BMP180;56766;52.260;20.746;2023-11-19T00:35:09;101009.40;;;0.00
69545;BMP180;56766;52.260;20.746;2023-11-19T00:37:40;100998.40;;;0.02
69545;BMP180;56766;52.260;20.746;2023-11-19T00:40:09;100997.60;;;0.00
69545;BMP180;56766;52.260;20.746;2023-11-19T00:42:37;100991.80;;;0.00
69545;BMP180;56766;52.260;20.746;2023-11-19T00:45:04;100994.00;;;0.00
69545;BMP180;56766;52.260;20.746;2023-11-19T00:47:35;100987.60;;;0.00
69545;BMP180;56766;52.260;20.746;2023-11-19T00:50:03;100982.20;;;0.00
69545;BMP180;56766;52.260;20.746;2023-11-19T00:52:29;100979.40;;;0.00
69545;BMP180;56766;52.260;20.746;2023-11-19T00:54:56;100971.60;;;0.00
69545;BMP180;56766;52.260;20.746;2023-11-19T00:57:23;100961.60;;;0.00
69545;BMP180;56766;52.260;20.746;2023-11-19T00:59:50;100960.00;;;0.00
69545;BMP180;56766;52.260;20.746;2023-11-19T01:02:17;100951.60;;;0.08
69545;BMP180;56766;52.260;20.746;2023-11-19T01:04:43;100943.20;;;0.06
69545;BMP180;56766;52.260;20.746;2023-11-19T01:07:10;100943.00;;;0.00
69545;BMP180;56766;52.260;20.746;2023-11-19T01:09:42;100944.60;;;0.00
69545;BMP180;56766;52.260;20.746;2023-11-19T01:12:09;100935.60;;;0.00
69545;BMP180;56766;52.260;20.746;2023-11-19T01:14:36;100940.20;;;0.00
69545;BMP180;56766;52.260;20.746;2023-11-19T01:17:03;100937.60;;;0.00
69545;BMP180;56766;52.260;20.746;2023-11-19T01:19:31;100931.20;;;0.00
69545;BMP180;56766;52.260;20.746;2023-11-19T01:21:57;100923.80;;;0.00
69545;BMP180;56766;52.260;20.746;2023-11-19T01:24:24;100930.60;;;0.00
69545;BMP180;56766;52.260;20.746;2023-11-19T01:26:52;100919.20;;;0.00
69545;BMP180;56766;52.260;20.746;2023-11-19T01:29:20;100923.80;;;0.00
69545;BMP180;56766;52.260;20.746;2023-11-19T01:31:46;100925.60;;;0.00
69545;BMP180;56766;52.260;20.746;2023-11-19T01:34:13;100925.60;;;0.06
69545;BMP180;56766;52.260;20.746;2023-11-19T01:36:40;100919.80;;;0.10
69545;BMP180;56766;52.260;20.746;2023-11-19T01:39:07;100923.20;;;0.10
69545;BMP180;56766;52.260;20.746;2023-11-19T01:41:35;100918.40;;;0.08
69545;BMP180;56766;52.260;20.746;2023-11-19T01:44:08;100916.20;;;0.10
69545;BMP180;56766;52.260;20.746;2023-11-19T01:46:36;100904.40;;;0.02
69545;BMP180;56766;52.260;20.746;2023-11-19T01:49:05;100899.40;;;0.02
69545;BMP180;56766;52.260;20.746;2023-11-19T01:51:31;100897.40;;;0.00
69545;BMP180;56766;52.260;20.746;2023-11-19T01:53:59;100902.60;;;0.04
69545;BMP180;56766;52.260;20.746;2023-11-19T01:56:27;100896.00;;;0.10
69545;BMP180;56766;52.260;20.746;2023-11-19T01:58:56;100885.00;;;0.10
69545;BMP180;56766;52.260;20.746;2023-11-19T02:01:24;100894.00;;;0.10
69545;BMP180;56766;52.260;20.746;2023-11-19T02:03:52;100884.40;;;0.10
69545;BMP180;56766;52.260;20.746;2023-11-19T02:06:19;100880.40;;;0.10
69545;BMP180;56766;52.260;20.746;2023-11-19T02:08:45;100878.40;;;0.12
69545;BMP180;56766;52.260;20.746;2023-11-19T02:11:12;100879.00;;;0.20
69545;BMP180;56766;52.260;20.746;2023-11-19T02:13:40;100876.00;;;0.20
69545;BMP180;56766;52.260;20.746;2023-11-19T02:16:08;100868.20;;;0.20
69545;BMP180;56766;52.260;20.746;2023-11-19T02:18:37;100858.60;;;0.20
69545;BMP180;56766;52.260;20.746;2023-11-19T02:21:04;100862.80;;;0.20
69545;BMP180;56766;52.260;20.746;2023-11-19T02:23:31;100866.60;;;0.20
69545;BMP180;56766;52.260;20.746;2023-11-19T02:26:28;100867.60;;;0.20
69545;BMP180;56766;52.260;20.746;2023-11-19T02:28:58;100870.00;;;0.20
69545;BMP180;56766;52.260;20.746;2023-11-19T02:31:25;100873.00;;;0.20
69545;BMP180;56766;52.260;20.746;2023-11-19T02:33:53;100863.60;;;0.20
69545;BMP180;56766;52.260;20.746;2023-11-19T02:36:22;100853.60;;;0.20
69545;BMP180;56766;52.260;20.746;2023-11-19T02:38:48;100845.80;;;0.20
69545;BMP180;56766;52.260;20.746;2023-11-19T02:41:16;100851.60;;;0.22
69545;BMP180;56766;52.260;20.746;2023-11-19T02:43:42;100851.20;;;0.30
69545;BMP180;56766;52.260;20.746;2023-11-19T02:46:09;100844.00;;;0.30
69545;BMP180;56766;52.260;20.746;2023-11-19T02:48:37;100841.00;;;0.30
69545;BMP180;56766;52.260;20.746;2023-11-19T02:51:05;100836.20;;;0.30
69545;BMP180;56766;52.260;20.746;2023-11-19T02:53:36;100818.20;;;0.30
69545;BMP180;56766;52.260;20.746;2023-11-19T02:56:07;100814.00;;;0.30
69545;BMP180;56766;52.260;20.746;2023-11-19T02:58:52;100811.00;;;0.32
69545;BMP180;56766;52.260;20.746;2023-11-19T03:01:24;100802.60;;;0.30
69545;BMP180;56766;52.260;20.746;2023-11-19T03:03:59;100805.20;;;0.40
69545;BMP180;56766;52.260;20.746;2023-11-19T03:06:28;100797.20;;;0.40
69545;BMP180;56766;52.260;20.746;2023-11-19T03:08:56;100791.20;;;0.40
69545;BMP180;56766;52.260;20.746;2023-11-19T03:11:22;100782.60;;;0.40
69545;BMP180;56766;52.260;20.746;2023-11-19T03:13:49;100782.60;;;0.40
69545;BMP180;56766;52.260;20.746;2023-11-19T03:16:15;100778.60;;;0.40
69545;BMP180;56766;52.260;20.746;2023-11-19T03:18:43;100777.20;;;0.44
69545;BMP180;56766;52.260;20.746;2023-11-19T03:21:10;100769.00;;;0.40
69545;BMP180;56766;52.260;20.746;2023-11-19T03:23:37;100768.40;;;0.48
69545;BMP180;56766;52.260;20.746;2023-11-19T03:26:03;100766.60;;;0.48
69545;BMP180;56766;52.260;20.746;2023-11-19T03:28:32;100758.80;;;0.50
69545;BMP180;56766;52.260;20.746;2023-11-19T03:30:58;100758.00;;;0.50
69545;BMP180;56766;52.260;20.746;2023-11-19T03:33:25;100756.40;;;0.50
69545;BMP180;56766;52.260;20.746;2023-11-19T03:35:56;100753.60;;;0.50
69545;BMP180;56766;52.260;20.746;2023-11-19T03:38:24;100754.60;;;0.50
69545;BMP180;56766;52.260;20.746;2023-11-19T03:40:51;100747.20;;;0.50
69545;BMP180;56766;52.260;20.746;2023-11-19T03:43:18;100744.60;;;0.54
69545;BMP180;56766;52.260;20.746;2023-11-19T03:45:45;100741.80;;;0.60
69545;BMP180;56766;52.260;20.746;2023-11-19T03:48:13;100739.40;;;0.58
69545;BMP180;56766;52.260;20.746;2023-11-19T03:50:43;100737.00;;;0.58
69545;BMP180;56766;52.260;20.746;2023-11-19T03:53:11;100738.20;;;0.60
69545;BMP180;56766;52.260;20.746;2023-11-19T03:55:38;100724.60;;;0.60
69545;BMP180;56766;52.260;20.746;2023-11-19T03:58:04;100721.60;;;0.60
69545;BMP180;56766;52.260;20.746;2023-11-19T04:00:32;100718.80;;;0.60
69545;BMP180;56766;52.260;20.746;2023-11-19T04:02:59;100714.60;;;0.60
69545;BMP180;56766;52.260;20.746;2023-11-19T04:05:26;100702.60;;;0.56
69545;BMP180;56766;52.260;20.746;2023-11-19T04:07:52;100694.20;;;0.50
69545;BMP180;56766;52.260;20.746;2023-11-19T04:10:19;100686.20;;;0.50
69545;BMP180;56766;52.260;20.746;2023-11-19T04:12:46;100677.00;;;0.50
69545;BMP180;56766;52.260;20.746;2023-11-19T04:15:15;100685.20;;;0.50
69545;BMP180;56766;52.260;20.746;2023-11-19T04:17:42;100677.80;;;0.50
69545;BMP180;56766;52.260;20.746;2023-11-19T04:20:09;100672.00;;;0.50
69545;BMP180;56766;52.260;20.746;2023-11-19T04:22:39;100668.80;;;0.50
69545;BMP180;56766;52.260;20.746;2023-11-19T04:25:08;100664.00;;;0.50
69545;BMP180;56766;52.260;20.746;2023-11-19T04:27:35;100657.60;;;0.50
69545;BMP180;56766;52.260;20.746;2023-11-19T04:30:02;100662.40;;;0.50
69545;BMP180;56766;52.260;20.746;2023-11-19T04:32:30;100660.40;;;0.50
69545;BMP180;56766;52.260;20.746;2023-11-19T04:34:56;100656.40;;;0.50
69545;BMP180;56766;52.260;20.746;2023-11-19T04:37:26;100659.20;;;0.50
69545;BMP180;56766;52.260;20.746;2023-11-19T04:39:52;100662.40;;;0.60
69545;BMP180;56766;52.260;20.746;2023-11-19T04:42:22;100655.00;;;0.60
69545;BMP180;56766;52.260;20.746;2023-11-19T04:44:48;100649.20;;;0.60
69545;BMP180;56766;52.260;20.746;2023-11-19T04:47:15;100645.40;;;0.56
69545;BMP180;56766;52.260;20.746;2023-11-19T04:49:43;100643.60;;;0.50
69545;BMP180;56766;52.260;20.746;2023-11-19T04:52:09;100637.80;;;0.50
69545;BMP180;56766;52.260;20.746;2023-11-19T04:54:42;100634.80;;;0.50
69545;BMP180;56766;52.260;20.746;2023-11-19T04:57:12;100634.80;;;0.50
69545;BMP180;56766;52.260;20.746;2023-11-19T04:59:38;100633.80;;;0.50
69545;BMP180;56766;52.260;20.746;2023-11-19T05:02:05;100626.40;;;0.50
69545;BMP180;56766;52.260;20.746;2023-11-19T05:04:32;100628.60;;;0.50
69545;BMP180;56766;52.260;20.746;2023-11-19T05:06:59;100625.60;;;0.50
69545;BMP180;56766;52.260;20.746;2023-11-19T05:09:25;100620.80;;;0.50
69545;BMP180;56766;52.260;20.746;2023-11-19T05:11:52;100620.20;;;0.50
69545;BMP180;56766;52.260;20.746;2023-11-19T05:14:19;100612.20;;;0.50
69545;BMP180;56766;52.260;20.746;2023-11-19T05:16:47;100602.40;;;0.48
69545;BMP180;56766;52.260;20.746;2023-11-19T05:19:14;100601.20;;;0.46
69545;BMP180;56766;52.260;20.746;2023-11-19T05:21:44;100596.80;;;0.44
69545;BMP180;56766;52.260;20.746;2023-11-19T05:24:11;100591.60;;;0.48
69545;BMP180;56766;52.260;20.746;2023-11-19T05:26:38;100585.20;;;0.48
69545;BMP180;56766;52.260;20.746;2023-11-19T05:29:06;100586.40;;;0.48
69545;BMP180;56766;52.260;20.746;2023-11-19T05:31:33;100591.80;;;0.48
69545;BMP180;56766;52.260;20.746;2023-11-19T05:33:59;100593.60;;;0.50
69545;BMP180;56766;52.260;20.746;2023-11-19T05:36:26;100583.60;;;0.50
69545;BMP180;56766;52.260;20.746;2023-11-19T05:38:54;100579.20;;;0.50
69545;BMP180;56766;52.260;20.746;2023-11-19T05:41:21;100575.60;;;0.50
69545;BMP180;56766;52.260;20.746;2023-11-19T05:43:47;100585.60;;;0.50
69545;BMP180;56766;52.260;20.746;2023-11-19T05:46:14;100576.20;;;0.50
69545;BMP180;56766;52.260;20.746;2023-11-19T05:48:40;100569.40;;;0.50
69545;BMP180;56766;52.260;20.746;2023-11-19T05:51:07;100565.20;;;0.50
69545;BMP180;56766;52.260;20.746;2023-11-19T05:53:34;100570.20;;;0.50
69545;BMP180;56766;52.260;20.746;2023-11-19T05:56:00;100570.20;;;0.50
69545;BMP180;56766;52.260;20.746;2023-11-19T05:58:30;100569.00;;;0.50
69545;BMP180;56766;52.260;20.746;2023-11-19T06:00:57;100569.20;;;0.50
69545;BMP180;56766;52.260;20.746;2023-11-19T06:03:24;100573.20;;;0.50
69545;BMP180;56766;52.260;20.746;2023-11-19T06:05:52;100566.60;;;0.50
69545;BMP180;56766;52.260;20.746;2023-11-19T06:08:18;100571.40;;;0.50
69545;BMP180;56766;52.260;20.746;2023-11-19T06:10:47;100566.20;;;0.50
69545;BMP180;56766;52.260;20.746;2023-11-19T06:13:16;100563.00;;;0.50
69545;BMP180;56766;52.260;20.746;2023-11-19T06:15:43;100559.40;;;0.50
69545;BMP180;56766;52.260;20.746;2023-11-19T06:18:10;100552.20;;;0.50
69545;BMP180;56766;52.260;20.746;2023-11-19T06:20:41;100553.00;;;0.50
69545;BMP180;56766;52.260;20.746;2023-11-19T06:23:10;100545.20;;;0.50
69545;BMP180;56766;52.260;20.746;2023-11-19T06:25:37;100546.20;;;0.50
69545;BMP180;56766;52.260;20.746;2023-11-19T06:28:05;100540.80;;;0.50
69545;BMP180;56766;52.260;20.746;2023-11-19T06:30:31;100534.20;;;0.50
69545;BMP180;56766;52.260;20.746;2023-11-19T06:32:59;100529.20;;;0.50
69545;BMP180;56766;52.260;20.746;2023-11-19T06:35:26;100532.40;;;0.50
69545;BMP180;56766;52.260;20.746;2023-11-19T06:37:53;100520.20;;;0.50
69545;BMP180;56766;52.260;20.746;2023-11-19T06:40:20;100519.20;;;0.50
69545;BMP180;56766;52.260;20.746;2023-11-19T06:42:47;100515.00;;;0.50
69545;BMP180;56766;52.260;20.746;2023-11-19T06:45:14;100514.00;;;0.50
69545;BMP180;56766;52.260;20.746;2023-11-19T06:47:41;100513.40;;;0.50
69545;BMP180;56766;52.260;20.746;2023-11-19T06:50:07;100509.80;;;0.50
69545;BMP180;56766;52.260;20.746;2023-11-19T06:52:35;100506.80;;;0.50
69545;BMP180;56766;52.260;20.746;2023-11-19T06:55:04;100501.60;;;0.50
69545;BMP180;56766;52.260;20.746;2023-11-19T06:57:32;100501.80;;;0.50
69545;BMP180;56766;52.260;20.746;2023-11-19T06:59:59;100495.00;;;0.50
69545;BMP180;56766;52.260;20.746;2023-11-19T07:02:26;100498.00;;;0.50
69545;BMP180;56766;52.260;20.746;2023-11-19T07:04:52;100495.40;;;0.50
69545;BMP180;56766;52.260;20.746;2023-11-19T07:07:19;100490.40;;;0.48
69545;BMP180;56766;52.260;20.746;2023-11-19T07:09:46;100496.80;;;0.50
69545;BMP180;56766;52.260;20.746;2023-11-19T07:12:13;100488.60;;;0.50
69545;BMP180;56766;52.260;20.746;2023-11-19T07:14:40;100493.40;;;0.50
69545;BMP180;56766;52.260;20.746;2023-11-19T07:17:08;100485.00;;;0.46
69545;BMP180;56766;52.260;20.746;2023-11-19T07:19:36;100482.20;;;0.42
69545;BMP180;56766;52.260;20.746;2023-11-19T07:22:06;100486.60;;;0.40
69545;BMP180;56766;52.260;20.746;2023-11-19T07:24:33;100482.00;;;0.40
69545;BMP180;56766;52.260;20.746;2023-11-19T07:27:00;100479.80;;;0.40
69545;BMP180;56766;52.260;20.746;2023-11-19T07:29:29;100480.20;;;0.40
69545;BMP180;56766;52.260;20.746;2023-11-19T07:31:57;100473.60;;;0.42
69545;BMP180;56766;52.260;20.746;2023-11-19T07:34:24;100465.00;;;0.50
69545;BMP180;56766;52.260;20.746;2023-11-19T07:36:51;100466.80;;;0.58
69545;BMP180;56766;52.260;20.746;2023-11-19T07:39:18;100460.20;;;0.60
69545;BMP180;56766;52.260;20.746;2023-11-19T07:41:45;100456.80;;;0.60
69545;BMP180;56766;52.260;20.746;2023-11-19T07:44:11;100454.80;;;0.70
69545;BMP180;56766;52.260;20.746;2023-11-19T07:46:38;100445.80;;;0.70
69545;BMP180;56766;52.260;20.746;2023-11-19T07:49:05;100443.40;;;0.70
69545;BMP180;56766;52.260;20.746;2023-11-19T07:51:31;100440.60;;;0.78
69545;BMP180;56766;52.260;20.746;2023-11-19T07:53:58;100439.00;;;0.80
69545;BMP180;56766;52.260;20.746;2023-11-19T07:56:25;100439.40;;;0.90
69545;BMP180;56766;52.260;20.746;2023-11-19T07:58:51;100434.40;;;1.00
69545;BMP180;56766;52.260;20.746;2023-11-19T08:01:19;100435.60;;;1.00
69545;BMP180;56766;52.260;20.746;2023-11-19T08:03:45;100434.20;;;1.02
69545;BMP180;56766;52.260;20.746;2023-11-19T08:06:12;100426.80;;;1.10
69545;BMP180;56766;52.260;20.746;2023-11-19T08:08:39;100430.20;;;1.10
69545;BMP180;56766;52.260;20.746;2023-11-19T08:11:05;100422.60;;;1.20
69545;BMP180;56766;52.260;20.746;2023-11-19T08:13:32;100423.60;;;1.20
69545;BMP180;56766;52.260;20.746;2023-11-19T08:15:59;100414.80;;;1.20
69545;BMP180;56766;52.260;20.746;2023-11-19T08:18:26;100407.00;;;1.20
69545;BMP180;56766;52.260;20.746;2023-11-19T08:20:52;100405.20;;;1.20
69545;BMP180;56766;52.260;20.746;2023-11-19T08:23:20;100408.40;;;1.20
69545;BMP180;56766;52.260;20.746;2023-11-19T08:25:47;100397.40;;;1.20
69545;BMP180;56766;52.260;20.746;2023-11-19T08:28:14;100396.60;;;1.30
69545;BMP180;56766;52.260;20.746;2023-11-19T08:30:40;100391.60;;;1.44
69545;BMP180;56766;52.260;20.746;2023-11-19T08:33:07;100395.40;;;1.60
69545;BMP180;56766;52.260;20.746;2023-11-19T08:35:34;100393.20;;;1.70
69545;BMP180;56766;52.260;20.746;2023-11-19T08:38:01;100390.40;;;1.70
69545;BMP180;56766;52.260;20.746;2023-11-19T08:40:28;100382.00;;;1.70
69545;BMP180;56766;52.260;20.746;2023-11-19T08:42:56;100388.00;;;1.80
69545;BMP180;56766;52.260;20.746;2023-11-19T08:45:23;100384.60;;;1.88
69545;BMP180;56766;52.260;20.746;2023-11-19T08:47:50;100387.00;;;2.00
69545;BMP180;56766;52.260;20.746;2023-11-19T08:50:16;100388.60;;;2.10
69545;BMP180;56766;52.260;20.746;2023-11-19T08:52:43;100377.00;;;2.10
69545;BMP180;56766;52.260;20.746;2023-11-19T08:55:10;100367.00;;;2.04
69545;BMP180;56766;52.260;20.746;2023-11-19T08:57:38;100358.20;;;2.10
69545;BMP180;56766;52.260;20.746;2023-11-19T09:00:07;100355.80;;;2.00
69545;BMP180;56766;52.260;20.746;2023-11-19T09:02:35;100346.00;;;2.00
69545;BMP180;56766;52.260;20.746;2023-11-19T09:05:05;100346.40;;;2.04
69545;BMP180;56766;52.260;20.746;2023-11-19T09:07:33;100336.00;;;2.10
69545;BMP180;56766;52.260;20.746;2023-11-19T09:10:00;100321.40;;;2.10
69545;BMP180;56766;52.260;20.746;2023-11-19T09:12:27;100317.00;;;2.20
69545;BMP180;56766;52.260;20.746;2023-11-19T09:14:54;100310.00;;;2.20
69545;BMP180;56766;52.260;20.746;2023-11-19T09:17:20;100310.40;;;2.10
69545;BMP180;56766;52.260;20.746;2023-11-19T09:19:47;100311.80;;;2.10
69545;BMP180;56766;52.260;20.746;2023-11-19T09:22:13;100312.60;;;2.10
69545;BMP180;56766;52.260;20.746;2023-11-19T09:24:41;100307.40;;;2.04
69545;BMP180;56766;52.260;20.746;2023-11-19T09:27:07;100302.60;;;1.98
69545;BMP180;56766;52.260;20.746;2023-11-19T09:29:34;100300.40;;;2.00
69545;BMP180;56766;52.260;20.746;2023-11-19T09:32:00;100294.00;;;1.92
69545;BMP180;56766;52.260;20.746;2023-11-19T09:34:27;100297.80;;;1.90
69545;BMP180;56766;52.260;20.746;2023-11-19T09:36:54;100298.00;;;1.90
69545;BMP180;56766;52.260;20.746;2023-11-19T09:39:21;100302.00;;;1.80
69545;BMP180;56766;52.260;20.746;2023-11-19T09:41:48;100296.00;;;1.80
69545;BMP180;56766;52.260;20.746;2023-11-19T09:44:16;100301.60;;;1.80
69545;BMP180;56766;52.260;20.746;2023-11-19T09:46:45;100290.80;;;1.72
69545;BMP180;56766;52.260;20.746;2023-11-19T09:49:14;100294.40;;;1.70
69545;BMP180;56766;52.260;20.746;2023-11-19T09:51:44;100289.40;;;1.70
69545;BMP180;56766;52.260;20.746;2023-11-19T09:54:11;100280.80;;;1.70
69545;BMP180;56766;52.260;20.746;2023-11-19T09:56:40;100275.80;;;1.70
69545;BMP180;56766;52.260;20.746;2023-11-19T09:59:08;100269.00;;;1.70
69545;BMP180;56766;52.260;20.746;2023-11-19T10:01:38;100259.80;;;1.62
69545;BMP180;56766;52.260;20.746;2023-11-19T10:04:06;100256.00;;;1.60
69545;BMP180;56766;52.260;20.746;2023-11-19T10:06:34;100255.40;;;1.68
69545;BMP180;56766;52.260;20.746;2023-11-19T10:09:00;100246.80;;;1.70
69545;BMP180;56766;52.260;20.746;2023-11-19T10:11:27;100248.80;;;1.70
69545;BMP180;56766;52.260;20.746;2023-11-19T10:13:54;100238.00;;;1.60
69545;BMP180;56766;52.260;20.746;2023-11-19T10:16:28;100242.60;;;1.60
69545;BMP180;56766;52.260;20.746;2023-11-19T10:18:55;100237.00;;;1.50
69545;BMP180;56766;52.260;20.746;2023-11-19T10:21:22;100235.20;;;1.50
69545;BMP180;56766;52.260;20.746;2023-11-19T10:26:20;100225.00;;;1.50
69545;BMP180;56766;52.260;20.746;2023-11-19T10:28:47;100219.00;;;1.50
69545;BMP180;56766;52.260;20.746;2023-11-19T10:31:20;100219.00;;;1.50
69545;BMP180;56766;52.260;20.746;2023-11-19T10:33:56;100217.20;;;1.50
69545;BMP180;56766;52.260;20.746;2023-11-19T10:36:22;100214.60;;;1.60
69545;BMP180;56766;52.260;20.746;2023-11-19T10:38:54;100200.20;;;1.60
69545;BMP180;56766;52.260;20.746;2023-11-19T10:41:32;100201.60;;;1.60
69545;BMP180;56766;52.260;20.746;2023-11-19T10:44:00;100190.00;;;1.56
69545;BMP180;56766;52.260;20.746;2023-11-19T10:46:41;100184.20;;;1.50
69545;BMP180;56766;52.260;20.746;2023-11-19T10:49:09;100175.60;;;1.50
69545;BMP180;56766;52.260;20.746;2023-11-19T10:51:45;100170.20;;;1.40
69545;BMP180;56766;52.260;20.746;2023-11-19T10:54:19;100168.40;;;1.40
69545;BMP180;56766;52.260;20.746;2023-11-19T10:56:58;100163.80;;;1.40
69545;BMP180;56766;52.260;20.746;2023-11-19T10:59:30;100146.40;;;1.40
69545;BMP180;56766;52.260;20.746;2023-11-19T11:02:03;100145.00;;;1.30
69545;BMP180;56766;52.260;20.746;2023-11-19T11:04:40;100138.80;;;1.24
69545;BMP180;56766;52.260;20.746;2023-11-19T11:07:09;100141.20;;;1.20
69545;BMP180;56766;52.260;20.746;2023-11-19T11:09:36;100123.40;;;1.20
69545;BMP180;56766;52.260;20.746;2023-11-19T11:12:06;100128.00;;;1.20
69545;BMP180;56766;52.260;20.746;2023-11-19T11:14:37;100119.60;;;1.20
69545;BMP180;56766;52.260;20.746;2023-11-19T11:17:08;100108.60;;;1.20
69545;BMP180;56766;52.260;20.746;2023-11-19T11:19:36;100104.00;;;1.10
69545;BMP180;56766;52.260;20.746;2023-11-19T11:22:06;100099.00;;;1.12
69545;BMP180;56766;52.260;20.746;2023-11-19T11:24:45;100096.00;;;1.10
69545;BMP180;56766;52.260;20.746;2023-11-19T11:28:04;100095.20;;;1.10
69545;BMP180;56766;52.260;20.746;2023-11-19T11:37:08;100084.20;;;1.20
69545;BMP180;56766;52.260;20.746;2023-11-19T11:39:40;100068.20;;;1.24
69545;BMP180;56766;52.260;20.746;2023-11-19T11:50:18;100041.40;;;1.30
69545;BMP180;56766;52.260;20.746;2023-11-19T11:55:52;100040.40;;;1.50
69545;BMP180;56766;52.260;20.746;2023-11-19T11:58:30;100031.80;;;1.56
69545;BMP180;56766;52.260;20.746;2023-11-19T12:01:01;100023.20;;;1.60
69545;BMP180;56766;52.260;20.746;2023-11-19T12:03:31;100024.20;;;1.60
69545;BMP180;56766;52.260;20.746;2023-11-19T12:05:58;100013.40;;;1.60
69545;BMP180;56766;52.260;20.746;2023-11-19T12:08:28;99999.00;;;1.62
69545;BMP180;56766;52.260;20.746;2023-11-19T12:10:58;99995.20;;;1.62
69545;BMP180;56766;52.260;20.746;2023-11-19T12:14:02;99996.20;;;1.60
69545;BMP180;56766;52.260;20.746;2023-11-19T12:16:30;99993.00;;;1.60
69545;BMP180;56766;52.260;20.746;2023-11-19T12:19:03;99988.40;;;1.62
69545;BMP180;56766;52.260;20.746;2023-11-19T12:21:33;99985.40;;;1.60
69545;BMP180;56766;52.260;20.746;2023-11-19T12:24:04;99983.00;;;1.60
69545;BMP180;56766;52.260;20.746;2023-11-19T12:26:36;99987.40;;;1.60
69545;BMP180;56766;52.260;20.746;2023-11-19T12:29:03;99984.60;;;1.60
69545;BMP180;56766;52.260;20.746;2023-11-19T12:31:32;99977.20;;;1.56
69545;BMP180;56766;52.260;20.746;2023-11-19T12:33:59;99981.40;;;1.54
69545;BMP180;56766;52.260;20.746;2023-11-19T12:36:26;99976.00;;;1.50
69545;BMP180;56766;52.260;20.746;2023-11-19T12:38:53;99974.20;;;1.50
69545;BMP180;56766;52.260;20.746;2023-11-19T12:41:20;99975.60;;;1.50
69545;BMP180;56766;52.260;20.746;2023-11-19T12:43:52;99977.20;;;1.40
69545;BMP180;56766;52.260;20.746;2023-11-19T12:46:21;99975.80;;;1.40
69545;BMP180;56766;52.260;20.746;2023-11-19T12:48:49;99971.60;;;1.40
69545;BMP180;56766;52.260;20.746;2023-11-19T12:51:17;99970.20;;;1.38
69545;BMP180;56766;52.260;20.746;2023-11-19T12:53:53;99963.80;;;1.32
69545;BMP180;56766;52.260;20.746;2023-11-19T12:56:25;99961.20;;;1.30
69545;BMP180;56766;52.260;20.746;2023-11-19T12:58:52;99963.80;;;1.30
69545;BMP180;56766;52.260;20.746;2023-11-19T13:01:20;99955.00;;;1.30
69545;BMP180;56766;52.260;20.746;2023-11-19T13:03:48;99952.20;;;1.30
69545;BMP180;56766;52.260;20.746;2023-11-19T13:06:18;99946.40;;;1.30
69545;BMP180;56766;52.260;20.746;2023-11-19T13:08:50;99934.80;;;1.30
69545;BMP180;56766;52.260;20.746;2023-11-19T13:11:33;99925.20;;;1.30
69545;BMP180;56766;52.260;20.746;2023-11-19T13:14:03;99921.60;;;1.28
69545;BMP180;56766;52.260;20.746;2023-11-19T13:16:38;99913.00;;;1.24
69545;BMP180;56766;52.260;20.746;2023-11-19T13:19:05;99905.40;;;1.26
69545;BMP180;56766;52.260;20.746;2023-11-19T13:21:32;99894.60;;;1.22
69545;BMP180;56766;52.260;20.746;2023-11-19T13:23:59;99892.00;;;1.20
69545;BMP180;56766;52.260;20.746;2023-11-19T13:26:26;99885.40;;;1.20
69545;BMP180;56766;52.260;20.746;2023-11-19T13:28:52;99877.40;;;1.20
69545;BMP180;56766;52.260;20.746;2023-11-19T13:31:19;99875.80;;;1.20
69545;BMP180;56766;52.260;20.746;2023-11-19T13:33:45;99864.20;;;1.20
69545;BMP180;56766;52.260;20.746;2023-11-19T13:36:12;99865.80;;;1.20
69545;BMP180;56766;52.260;20.746;2023-11-19T13:38:39;99861.80;;;1.16
69545;BMP180;56766;52.260;20.746;2023-11-19T13:41:07;99865.60;;;1.20
69545;BMP180;56766;52.260;20.746;2023-11-19T13:43:36;99853.60;;;1.12
69545;BMP180;56766;52.260;20.746;2023-11-19T13:46:03;99850.40;;;1.10
69545;BMP180;56766;52.260;20.746;2023-11-19T13:48:30;99848.20;;;1.10
69545;BMP180;56766;52.260;20.746;2023-11-19T13:50:57;99852.40;;;1.12
69545;BMP180;56766;52.260;20.746;2023-11-19T13:53:24;99852.20;;;1.10
69545;BMP180;56766;52.260;20.746;2023-11-19T13:55:50;99851.20;;;1.10
69545;BMP180;56766;52.260;20.746;2023-11-19T13:58:17;99845.20;;;1.10
69545;BMP180;56766;52.260;20.746;2023-11-19T14:00:44;99843.60;;;1.10
69545;BMP180;56766;52.260;20.746;2023-11-19T14:03:11;99844.00;;;1.02
69545;BMP180;56766;52.260;20.746;2023-11-19T14:05:38;99843.60;;;1.00
69545;BMP180;56766;52.260;20.746;2023-11-19T14:08:05;99833.00;;;1.00
69545;BMP180;56766;52.260;20.746;2023-11-19T14:10:38;99830.60;;;1.00
69545;BMP180;56766;52.260;20.746;2023-11-19T14:13:08;99824.40;;;1.00
69545;BMP180;56766;52.260;20.746;2023-11-19T14:15:35;99825.00;;;0.98
69545;BMP180;56766;52.260;20.746;2023-11-19T14:18:02;99825.20;;;0.94
69545;BMP180;56766;52.260;20.746;2023-11-19T14:20:29;99817.40;;;0.90
69545;BMP180;56766;52.260;20.746;2023-11-19T14:22:56;99817.60;;;0.90
69545;BMP180;56766;52.260;20.746;2023-11-19T14:25:23;99813.80;;;0.90